createdAt,value
2019-02-15T00:03:22.508Z,10.07
2019-02-15T00:08:26.883Z,12.87
2019-02-15T00:13:31.256Z,10.93
2019-02-15T00:18:37.237Z,9.40
2019-02-15T00:23:41.684Z,11.10
2019-02-15T00:28:46.041Z,10.20
2019-02-15T00:33:51.681Z,12.87
2019-02-15T00:38:56.024Z,10.77
2019-02-15T00:44:00.394Z,10.67
2019-02-15T00:49:05.638Z,8.77
2019-02-15T00:54:11.650Z,11.53
2019-02-15T00:59:23.390Z,11.17
2019-02-15T01:04:29.388Z,10.87
2019-02-15T01:09:35.387Z,9.83
2019-02-15T01:14:39.743Z,9.47
2019-02-15T01:19:44.157Z,10.20
2019-02-15T01:24:48.492Z,9.57
2019-02-15T01:29:57.202Z,9.70
2019-02-15T01:35:09.199Z,8.87
2019-02-15T01:40:15.180Z,9.60
2019-02-15T01:45:26.991Z,11.03
2019-02-15T01:50:31.377Z,10.80
2019-02-15T01:55:35.740Z,10.17
2019-02-15T02:00:40.392Z,10.53
2019-02-15T02:05:44.906Z,9.23
2019-02-15T02:10:49.280Z,9.30
2019-02-15T02:15:53.647Z,10.73
2019-02-15T02:20:58.014Z,8.17
2019-02-15T02:26:02.406Z,8.20
2019-02-15T02:31:06.783Z,11.20
2019-02-15T02:36:11.153Z,10.07
2019-02-15T02:41:15.545Z,10.73
2019-02-15T02:46:20.058Z,10.00
2019-02-15T02:51:24.388Z,10.80
2019-02-15T02:56:28.745Z,11.00
2019-02-15T03:01:33.134Z,10.67
2019-02-15T03:06:37.526Z,11.95
2019-02-15T03:11:41.853Z,11.93
2019-02-15T03:16:46.227Z,10.90
2019-02-15T03:21:50.609Z,8.87
2019-02-15T03:26:54.965Z,11.27
2019-02-15T03:31:59.342Z,10.70
2019-02-15T03:37:21.845Z,9.60
2019-02-15T03:42:26.356Z,9.63
2019-02-15T03:47:30.838Z,10.40
2019-02-15T03:52:35.250Z,10.93
2019-02-15T03:57:39.602Z,9.20
2019-02-15T04:02:44.051Z,10.10
2019-02-15T04:07:48.394Z,7.43
2019-02-15T04:12:52.779Z,8.57
2019-02-15T04:17:57.153Z,9.10
2019-02-15T04:23:01.508Z,9.73
2019-02-15T04:28:05.884Z,11.07
2019-02-15T04:33:10.229Z,10.07
2019-02-15T04:38:14.799Z,11.40
2019-02-15T04:43:20.193Z,9.27
2019-02-15T04:48:24.583Z,8.67
2019-02-15T04:53:28.952Z,11.07
2019-02-15T04:58:33.344Z,8.87
2019-02-15T05:03:37.693Z,9.67
2019-02-15T05:08:42.053Z,8.10
2019-02-15T05:13:46.427Z,9.57
2019-02-15T05:18:50.804Z,10.53
2019-02-15T05:23:55.147Z,11.53
2019-02-15T05:28:59.599Z,13.33
2019-02-15T05:34:03.977Z,10.37
2019-02-15T05:39:08.790Z,13.47
2019-02-15T05:44:13.163Z,11.03
2019-02-15T05:49:17.567Z,8.70
2019-02-15T05:54:21.942Z,15.03
2019-02-15T05:59:26.295Z,8.00
2019-02-15T06:04:30.709Z,11.33
2019-02-15T06:09:35.088Z,13.27
2019-02-15T06:14:39.454Z,10.33
2019-02-15T06:19:43.793Z,8.77
2019-02-15T06:24:48.211Z,9.00
2019-02-15T06:29:52.563Z,10.60
2019-02-15T06:34:56.932Z,9.97
2019-02-15T06:40:01.485Z,10.67
2019-02-15T06:45:06.993Z,10.63
2019-02-15T06:50:11.376Z,12.27
2019-02-15T06:55:15.751Z,10.53
2019-02-15T07:00:38.012Z,11.73
2019-02-15T07:05:42.424Z,13.80
2019-02-15T07:10:46.774Z,12.10
2019-02-15T07:15:51.120Z,11.47
2019-02-15T07:20:55.507Z,9.87
2019-02-15T07:25:59.882Z,8.97
2019-02-15T07:31:04.345Z,10.10
2019-02-15T07:36:08.796Z,10.97
2019-02-15T07:41:13.162Z,11.27
2019-02-15T07:46:17.567Z,10.80
2019-02-15T07:51:21.936Z,12.33
2019-02-15T07:56:26.270Z,9.13
2019-02-15T08:01:30.679Z,10.50
2019-02-15T08:06:35.046Z,10.33
2019-02-15T08:11:39.410Z,10.80
2019-02-15T08:16:43.937Z,9.87
2019-02-15T08:21:48.313Z,8.33
2019-02-15T08:26:52.712Z,12.13
2019-02-15T08:31:57.087Z,10.90
2019-02-15T08:37:01.451Z,10.87
2019-02-15T08:42:05.886Z,8.40
2019-02-15T08:47:10.220Z,8.40
2019-02-15T08:52:14.578Z,12.15
2019-02-15T08:57:18.993Z,10.50
2019-02-15T09:02:23.321Z,13.83
2019-02-15T09:07:27.715Z,13.00
2019-02-15T09:12:32.115Z,12.30
2019-02-15T09:17:36.486Z,10.70
2019-02-15T09:22:40.867Z,8.73
2019-02-15T09:27:52.716Z,8.40
2019-02-15T09:32:57.146Z,11.50
2019-02-15T09:38:01.569Z,10.70
2019-02-15T09:43:05.921Z,10.30
2019-02-15T09:48:10.383Z,8.00
2019-02-15T09:53:15.679Z,13.57
2019-02-15T09:58:20.027Z,10.43
2019-02-15T10:03:24.396Z,10.00
2019-02-15T10:08:29.788Z,9.33
2019-02-15T10:13:34.175Z,10.47
2019-02-15T10:18:38.552Z,9.20
2019-02-15T10:23:42.880Z,9.37
2019-02-15T10:28:47.265Z,10.50
2019-02-15T10:33:51.617Z,11.90
2019-02-15T10:38:56.135Z,9.00
2019-02-15T10:44:00.523Z,9.73
2019-02-15T10:49:04.957Z,8.73
2019-02-15T10:54:09.321Z,9.00
2019-02-15T10:59:13.659Z,9.57
2019-02-15T11:04:18.071Z,9.50
2019-02-15T11:09:22.612Z,12.10
2019-02-15T11:14:27.040Z,9.93
2019-02-15T11:19:31.373Z,7.60
2019-02-15T11:24:35.842Z,13.73
2019-02-15T11:29:40.219Z,10.80
2019-02-15T11:34:44.671Z,10.17
2019-02-15T11:39:49.113Z,11.97
2019-02-15T11:44:53.551Z,11.90
2019-02-15T11:49:58.010Z,8.30
2019-02-15T11:55:02.576Z,12.03
2019-02-15T12:00:18.406Z,9.53
2019-02-15T12:05:23.487Z,4.73
2019-02-15T12:10:27.970Z,6.07
2019-02-15T12:15:32.355Z,6.73
2019-02-15T12:20:36.747Z,5.83
2019-02-15T12:25:41.288Z,4.53
2019-02-15T12:30:47.269Z,5.27
2019-02-15T12:35:51.606Z,5.67
2019-02-15T12:40:55.965Z,4.20
2019-02-15T12:46:01.228Z,4.13
2019-02-15T12:51:06.000Z,6.13
2019-02-15T12:56:10.360Z,4.77
2019-02-15T13:01:14.802Z,6.50
2019-02-15T13:06:28.189Z,3.50
2019-02-15T13:11:25.270Z,4.60
2019-02-15T13:16:29.780Z,2.70
2019-02-15T13:21:34.129Z,3.60
2019-02-15T13:26:38.472Z,3.17
2019-02-15T13:31:42.869Z,3.20
2019-02-15T13:36:47.218Z,3.10
2019-02-15T13:41:51.573Z,1.57
2019-02-15T13:46:57.650Z,1.43
2019-02-15T13:52:02.021Z,3.23
2019-02-15T13:57:06.438Z,1.40
2019-02-15T14:02:10.785Z,2.13
2019-02-15T14:07:19.152Z,3.40
2019-02-15T14:12:23.572Z,3.30
2019-02-15T14:17:29.587Z,0.93
2019-02-15T14:22:35.728Z,0.90
2019-02-15T14:27:40.109Z,1.43
2019-02-15T14:32:44.464Z,2.40
2019-02-15T14:37:48.857Z,2.83
2019-02-15T14:42:53.226Z,1.00
2019-02-15T14:47:57.572Z,1.20
2019-02-15T14:53:02.041Z,1.20
2019-02-15T14:58:06.403Z,3.90
2019-02-15T15:03:10.798Z,2.03
2019-02-15T15:08:15.128Z,2.85
2019-02-15T15:13:19.598Z,0.87
2019-02-15T15:18:24.105Z,1.20
2019-02-15T15:23:28.546Z,1.87
2019-02-15T15:28:33.090Z,1.63
2019-02-15T15:33:37.540Z,11.33
2019-02-15T15:38:41.966Z,4.47
2019-02-15T15:43:46.325Z,4.17
2019-02-15T15:48:50.669Z,1.50
2019-02-15T15:53:55.225Z,3.83
2019-02-15T15:59:01.199Z,2.53
2019-02-15T16:04:05.549Z,1.93
2019-02-15T16:09:09.895Z,4.47
2019-02-15T16:14:14.618Z,3.23
2019-02-15T16:19:19.016Z,5.53
2019-02-15T16:24:23.473Z,2.95
2019-02-15T16:29:27.857Z,2.13
2019-02-15T16:34:32.218Z,2.20
2019-02-15T16:39:36.623Z,1.60
2019-02-15T16:44:40.997Z,1.80
2019-02-15T16:49:45.404Z,3.55
2019-02-15T16:54:49.791Z,3.47
2019-02-15T16:59:54.134Z,6.97
2019-02-15T17:04:58.494Z,13.47
2019-02-15T17:10:02.917Z,7.93
2019-02-15T17:15:12.966Z,9.73
2019-02-15T17:20:18.358Z,8.17
2019-02-15T17:25:22.872Z,8.03
2019-02-15T17:30:27.232Z,5.80
2019-02-15T17:35:31.628Z,6.30
2019-02-15T17:40:36.152Z,6.80
2019-02-15T17:45:40.711Z,6.87
2019-02-15T17:50:45.157Z,5.73
2019-02-15T17:55:49.500Z,5.67
2019-02-15T18:00:53.873Z,5.43
2019-02-15T18:05:58.337Z,6.73
2019-02-15T18:11:02.685Z,4.40
2019-02-15T18:16:07.029Z,8.13
2019-02-15T18:21:11.584Z,6.90
2019-02-15T18:26:16.036Z,8.80
2019-02-15T18:31:21.565Z,13.60
2019-02-15T18:36:25.923Z,14.83
2019-02-15T18:41:30.289Z,14.53
2019-02-15T18:46:34.698Z,11.03
2019-02-15T18:51:39.210Z,10.57
2019-02-15T18:56:43.562Z,11.20
2019-02-15T19:01:48.081Z,13.13
2019-02-15T19:06:52.593Z,12.40
2019-02-15T19:11:56.950Z,11.37
2019-02-15T19:17:01.306Z,13.40
2019-02-15T19:22:05.741Z,12.63
2019-02-15T19:27:10.083Z,10.77
2019-02-15T19:32:14.508Z,12.30
2019-02-15T19:37:19.022Z,10.77
2019-02-15T19:42:23.482Z,9.77
2019-02-15T19:47:27.817Z,7.90
2019-02-15T19:52:32.287Z,10.80
2019-02-15T19:57:36.969Z,9.57
2019-02-15T20:02:41.735Z,9.27
2019-02-15T20:07:46.175Z,8.20
2019-02-15T20:12:50.560Z,10.00
2019-02-15T20:17:54.996Z,8.90
2019-02-15T20:22:59.438Z,8.90
2019-02-15T20:28:13.402Z,8.27
2019-02-15T20:33:09.922Z,11.87
2019-02-15T20:38:14.304Z,10.78
2019-02-15T20:43:18.816Z,8.20
2019-02-15T20:48:23.180Z,10.47
2019-02-15T20:53:27.530Z,11.10
2019-02-15T20:58:31.986Z,8.53
2019-02-15T21:03:36.351Z,12.47
2019-02-15T21:08:40.720Z,11.13
2019-02-15T21:13:45.129Z,11.00
2019-02-15T21:18:49.475Z,11.50
2019-02-15T21:23:53.915Z,9.50
2019-02-15T21:28:59.766Z,11.17
2019-02-15T21:34:04.516Z,11.17
2019-02-15T21:39:09.942Z,10.23
2019-02-15T21:44:14.708Z,9.47
2019-02-15T21:49:19.065Z,12.93
2019-02-15T21:54:23.520Z,10.33
2019-02-15T21:59:27.956Z,11.23
2019-02-15T22:04:32.424Z,11.03
2019-02-15T22:09:36.759Z,12.03
2019-02-15T22:14:41.370Z,12.53
2019-02-15T22:19:45.848Z,12.13
2019-02-15T22:24:50.307Z,12.87
2019-02-15T22:29:54.649Z,14.93
2019-02-15T22:34:59.044Z,11.33
2019-02-15T22:40:26.725Z,11.33
2019-02-15T22:45:31.070Z,12.27
2019-02-15T22:50:36.612Z,11.17
2019-02-15T22:55:40.985Z,11.97
2019-02-15T23:00:52.445Z,10.93
2019-02-15T23:05:58.585Z,11.67
2019-02-15T23:11:02.962Z,14.67
2019-02-15T23:16:07.306Z,11.07
2019-02-15T23:21:11.679Z,10.70
2019-02-15T23:26:16.049Z,11.00
2019-02-15T23:31:20.439Z,10.30
2019-02-15T23:36:24.797Z,10.57
2019-02-15T23:41:29.142Z,12.57
2019-02-15T23:46:33.506Z,11.03
2019-02-15T23:51:37.879Z,10.83
2019-02-15T23:56:42.248Z,10.50
